sensor_id;sensor_type;location;lat;lon;timestamp;temperature;humidity
21115;DHT22;10715;48.546;9.896;2023-08-07T00:00:24;10.10;99.90
21115;DHT22;10715;48.546;9.896;2023-08-07T00:02:50;10.10;99.90
21115;DHT22;10715;48.546;9.896;2023-08-07T00:05:16;10.10;99.90
21115;DHT22;10715;48.546;9.896;2023-08-07T00:07:44;10.10;99.90
21115;DHT22;10715;48.546;9.896;2023-08-07T00:10:10;10.10;99.90
21115;DHT22;10715;48.546;9.896;2023-08-07T00:12:36;10.00;99.90
21115;DHT22;10715;48.546;9.896;2023-08-07T00:15:05;10.00;99.90
21115;DHT22;10715;48.546;9.896;2023-08-07T00:17:31;10.00;99.90
21115;DHT22;10715;48.546;9.896;2023-08-07T00:19:57;10.10;99.90
21115;DHT22;10715;48.546;9.896;2023-08-07T00:22:23;10.00;99.90
21115;DHT22;10715;48.546;9.896;2023-08-07T00:24:49;10.00;99.90
21115;DHT22;10715;48.546;9.896;2023-08-07T00:27:14;10.00;99.90
21115;DHT22;10715;48.546;9.896;2023-08-07T00:29:40;10.00;99.90
21115;DHT22;10715;48.546;9.896;2023-08-07T00:32:06;10.00;99.90
21115;DHT22;10715;48.546;9.896;2023-08-07T00:34:32;10.00;99.90
21115;DHT22;10715;48.546;9.896;2023-08-07T00:36:58;9.90;99.90
21115;DHT22;10715;48.546;9.896;2023-08-07T00:39:24;9.90;99.90
21115;DHT22;10715;48.546;9.896;2023-08-07T00:41:50;9.90;99.90
21115;DHT22;10715;48.546;9.896;2023-08-07T00:44:15;9.90;99.90
21115;DHT22;10715;48.546;9.896;2023-08-07T00:46:42;9.90;99.90
21115;DHT22;10715;48.546;9.896;2023-08-07T00:49:09;9.90;99.90
21115;DHT22;10715;48.546;9.896;2023-08-07T00:51:37;9.90;99.90
21115;DHT22;10715;48.546;9.896;2023-08-07T00:54:05;9.90;99.90
21115;DHT22;10715;48.546;9.896;2023-08-07T00:56:31;9.90;99.90
21115;DHT22;10715;48.546;9.896;2023-08-07T00:58:58;9.90;99.90
21115;DHT22;10715;48.546;9.896;2023-08-07T01:01:25;9.80;99.90
21115;DHT22;10715;48.546;9.896;2023-08-07T01:03:51;9.80;99.90
21115;DHT22;10715;48.546;9.896;2023-08-07T01:06:17;9.80;99.90
21115;DHT22;10715;48.546;9.896;2023-08-07T01:08:43;9.80;99.90
21115;DHT22;10715;48.546;9.896;2023-08-07T01:14:00;9.80;99.90
21115;DHT22;10715;48.546;9.896;2023-08-07T01:19:24;9.80;99.90
21115;DHT22;10715;48.546;9.896;2023-08-07T01:22:03;9.80;99.90
21115;DHT22;10715;48.546;9.896;2023-08-07T01:24:29;9.80;99.90
21115;DHT22;10715;48.546;9.896;2023-08-07T01:26:59;9.80;99.90
21115;DHT22;10715;48.546;9.896;2023-08-07T01:29:36;9.80;99.90
21115;DHT22;10715;48.546;9.896;2023-08-07T01:32:08;9.80;99.90
21115;DHT22;10715;48.546;9.896;2023-08-07T01:34:36;9.80;99.90
21115;DHT22;10715;48.546;9.896;2023-08-07T01:37:03;9.80;99.90
21115;DHT22;10715;48.546;9.896;2023-08-07T01:39:29;9.80;99.90
21115;DHT22;10715;48.546;9.896;2023-08-07T01:41:56;9.80;99.90
21115;DHT22;10715;48.546;9.896;2023-08-07T01:44:21;9.80;99.90
21115;DHT22;10715;48.546;9.896;2023-08-07T01:46:47;9.80;99.90
21115;DHT22;10715;48.546;9.896;2023-08-07T01:49:13;9.80;99.90
21115;DHT22;10715;48.546;9.896;2023-08-07T01:51:38;9.80;99.90
21115;DHT22;10715;48.546;9.896;2023-08-07T01:54:04;9.80;99.90
21115;DHT22;10715;48.546;9.896;2023-08-07T01:56:30;9.80;99.90
21115;DHT22;10715;48.546;9.896;2023-08-07T01:58:55;9.70;99.90
21115;DHT22;10715;48.546;9.896;2023-08-07T02:01:21;9.70;99.90
21115;DHT22;10715;48.546;9.896;2023-08-07T02:03:47;9.70;99.90
21115;DHT22;10715;48.546;9.896;2023-08-07T02:06:12;9.70;99.90
21115;DHT22;10715;48.546;9.896;2023-08-07T02:08:38;9.70;99.90
21115;DHT22;10715;48.546;9.896;2023-08-07T02:11:04;9.70;99.90
21115;DHT22;10715;48.546;9.896;2023-08-07T02:13:30;9.70;99.90
21115;DHT22;10715;48.546;9.896;2023-08-07T02:15:55;9.70;99.90
21115;DHT22;10715;48.546;9.896;2023-08-07T02:18:21;9.70;99.90
21115;DHT22;10715;48.546;9.896;2023-08-07T02:20:47;9.70;99.90
21115;DHT22;10715;48.546;9.896;2023-08-07T02:23:12;9.70;99.90
21115;DHT22;10715;48.546;9.896;2023-08-07T02:25:38;9.70;99.90
21115;DHT22;10715;48.546;9.896;2023-08-07T02:28:04;9.70;99.90
21115;DHT22;10715;48.546;9.896;2023-08-07T02:30:31;9.70;99.90
21115;DHT22;10715;48.546;9.896;2023-08-07T02:32:56;9.70;99.90
21115;DHT22;10715;48.546;9.896;2023-08-07T02:35:22;9.70;99.90
21115;DHT22;10715;48.546;9.896;2023-08-07T02:37:48;9.70;99.90
21115;DHT22;10715;48.546;9.896;2023-08-07T02:40:13;9.70;99.90
21115;DHT22;10715;48.546;9.896;2023-08-07T02:42:41;9.70;99.90
21115;DHT22;10715;48.546;9.896;2023-08-07T02:45:08;9.70;99.90
21115;DHT22;10715;48.546;9.896;2023-08-07T02:47:33;9.70;99.90
21115;DHT22;10715;48.546;9.896;2023-08-07T02:49:59;9.70;99.90
21115;DHT22;10715;48.546;9.896;2023-08-07T02:52:25;9.70;99.90
21115;DHT22;10715;48.546;9.896;2023-08-07T02:54:50;9.70;99.90
21115;DHT22;10715;48.546;9.896;2023-08-07T02:57:16;9.70;99.90
21115;DHT22;10715;48.546;9.896;2023-08-07T02:59:42;9.70;99.90
21115;DHT22;10715;48.546;9.896;2023-08-07T03:02:08;9.70;99.90
21115;DHT22;10715;48.546;9.896;2023-08-07T03:04:33;9.70;99.90
21115;DHT22;10715;48.546;9.896;2023-08-07T03:07:00;9.70;99.90
21115;DHT22;10715;48.546;9.896;2023-08-07T03:09:25;9.70;99.90
21115;DHT22;10715;48.546;9.896;2023-08-07T03:11:51;9.70;99.90
21115;DHT22;10715;48.546;9.896;2023-08-07T03:14:17;9.70;99.90
21115;DHT22;10715;48.546;9.896;2023-08-07T03:16:42;9.70;99.90
21115;DHT22;10715;48.546;9.896;2023-08-07T03:19:08;9.70;99.90
21115;DHT22;10715;48.546;9.896;2023-08-07T03:21:34;9.60;99.90
21115;DHT22;10715;48.546;9.896;2023-08-07T03:23:59;9.60;99.90
21115;DHT22;10715;48.546;9.896;2023-08-07T03:26:25;9.60;99.90
21115;DHT22;10715;48.546;9.896;2023-08-07T03:28:51;9.60;99.90
21115;DHT22;10715;48.546;9.896;2023-08-07T03:31:17;9.60;99.90
21115;DHT22;10715;48.546;9.896;2023-08-07T03:33:42;9.60;99.90
21115;DHT22;10715;48.546;9.896;2023-08-07T03:36:08;9.60;99.90
21115;DHT22;10715;48.546;9.896;2023-08-07T03:38:37;9.60;99.90
21115;DHT22;10715;48.546;9.896;2023-08-07T03:41:03;9.60;99.90
21115;DHT22;10715;48.546;9.896;2023-08-07T03:43:29;9.60;99.90
21115;DHT22;10715;48.546;9.896;2023-08-07T03:45:55;9.60;99.90
21115;DHT22;10715;48.546;9.896;2023-08-07T03:48:23;9.50;99.90
21115;DHT22;10715;48.546;9.896;2023-08-07T03:50:49;9.50;99.90
21115;DHT22;10715;48.546;9.896;2023-08-07T03:53:15;9.50;99.90
21115;DHT22;10715;48.546;9.896;2023-08-07T03:55:40;9.50;99.90
21115;DHT22;10715;48.546;9.896;2023-08-07T03:58:07;9.50;99.90
21115;DHT22;10715;48.546;9.896;2023-08-07T04:00:33;9.50;99.90
21115;DHT22;10715;48.546;9.896;2023-08-07T04:02:59;9.50;99.90
21115;DHT22;10715;48.546;9.896;2023-08-07T04:05:24;9.50;99.90
21115;DHT22;10715;48.546;9.896;2023-08-07T04:07:50;9.50;99.90
21115;DHT22;10715;48.546;9.896;2023-08-07T04:10:16;9.40;99.90
21115;DHT22;10715;48.546;9.896;2023-08-07T04:12:41;9.50;99.90
21115;DHT22;10715;48.546;9.896;2023-08-07T04:15:08;9.40;99.90
21115;DHT22;10715;48.546;9.896;2023-08-07T04:17:35;9.50;99.90
21115;DHT22;10715;48.546;9.896;2023-08-07T04:20:01;9.40;99.90
21115;DHT22;10715;48.546;9.896;2023-08-07T04:22:28;9.40;99.90
21115;DHT22;10715;48.546;9.896;2023-08-07T04:24:54;9.40;99.90
21115;DHT22;10715;48.546;9.896;2023-08-07T04:27:20;9.40;99.90
21115;DHT22;10715;48.546;9.896;2023-08-07T04:29:46;9.40;99.90
21115;DHT22;10715;48.546;9.896;2023-08-07T04:32:11;9.40;99.90
21115;DHT22;10715;48.546;9.896;2023-08-07T04:34:37;9.40;99.90
21115;DHT22;10715;48.546;9.896;2023-08-07T04:37:03;9.40;99.90
21115;DHT22;10715;48.546;9.896;2023-08-07T04:39:28;9.40;99.90
21115;DHT22;10715;48.546;9.896;2023-08-07T04:41:54;9.40;99.90
21115;DHT22;10715;48.546;9.896;2023-08-07T04:44:20;9.40;99.90
21115;DHT22;10715;48.546;9.896;2023-08-07T04:46:45;9.40;99.90
21115;DHT22;10715;48.546;9.896;2023-08-07T04:49:12;9.40;99.90
21115;DHT22;10715;48.546;9.896;2023-08-07T04:51:37;9.40;99.90
21115;DHT22;10715;48.546;9.896;2023-08-07T04:54:03;9.40;99.90
21115;DHT22;10715;48.546;9.896;2023-08-07T04:56:29;9.50;99.90
21115;DHT22;10715;48.546;9.896;2023-08-07T04:58:56;9.50;99.90
21115;DHT22;10715;48.546;9.896;2023-08-07T05:01:22;9.50;99.90
21115;DHT22;10715;48.546;9.896;2023-08-07T05:03:47;9.50;99.90
21115;DHT22;10715;48.546;9.896;2023-08-07T05:06:13;9.50;99.90
21115;DHT22;10715;48.546;9.896;2023-08-07T05:08:39;9.50;99.90
21115;DHT22;10715;48.546;9.896;2023-08-07T05:11:04;9.50;99.90
21115;DHT22;10715;48.546;9.896;2023-08-07T05:13:30;9.60;99.90
21115;DHT22;10715;48.546;9.896;2023-08-07T05:15:56;9.60;99.90
21115;DHT22;10715;48.546;9.896;2023-08-07T05:18:21;9.60;99.90
21115;DHT22;10715;48.546;9.896;2023-08-07T05:20:47;9.60;99.90
21115;DHT22;10715;48.546;9.896;2023-08-07T05:23:13;9.60;99.90
21115;DHT22;10715;48.546;9.896;2023-08-07T05:25:38;9.60;99.90
21115;DHT22;10715;48.546;9.896;2023-08-07T05:28:04;9.60;99.90
21115;DHT22;10715;48.546;9.896;2023-08-07T05:30:30;9.70;99.90
21115;DHT22;10715;48.546;9.896;2023-08-07T05:32:57;9.70;99.90
21115;DHT22;10715;48.546;9.896;2023-08-07T05:35:22;9.70;99.90
21115;DHT22;10715;48.546;9.896;2023-08-07T05:37:48;9.80;99.90
21115;DHT22;10715;48.546;9.896;2023-08-07T05:40:14;9.80;99.90
21115;DHT22;10715;48.546;9.896;2023-08-07T05:42:40;9.80;99.90
21115;DHT22;10715;48.546;9.896;2023-08-07T05:45:07;9.90;99.90
21115;DHT22;10715;48.546;9.896;2023-08-07T05:47:33;9.90;99.90
21115;DHT22;10715;48.546;9.896;2023-08-07T05:49:59;10.00;99.90
21115;DHT22;10715;48.546;9.896;2023-08-07T05:52:25;10.00;99.90
21115;DHT22;10715;48.546;9.896;2023-08-07T05:54:50;10.10;99.90
21115;DHT22;10715;48.546;9.896;2023-08-07T05:57:17;10.10;99.90
21115;DHT22;10715;48.546;9.896;2023-08-07T05:59:43;10.10;99.90
21115;DHT22;10715;48.546;9.896;2023-08-07T06:02:09;10.20;99.90
21115;DHT22;10715;48.546;9.896;2023-08-07T06:04:37;10.20;99.90
21115;DHT22;10715;48.546;9.896;2023-08-07T06:07:04;10.20;99.90
21115;DHT22;10715;48.546;9.896;2023-08-07T06:09:30;10.20;99.90
21115;DHT22;10715;48.546;9.896;2023-08-07T06:11:56;10.30;99.90
21115;DHT22;10715;48.546;9.896;2023-08-07T06:14:21;10.30;99.90
21115;DHT22;10715;48.546;9.896;2023-08-07T06:16:47;10.30;99.90
21115;DHT22;10715;48.546;9.896;2023-08-07T06:19:13;10.30;99.90
21115;DHT22;10715;48.546;9.896;2023-08-07T06:21:38;10.30;99.90
21115;DHT22;10715;48.546;9.896;2023-08-07T06:24:04;10.40;99.90
21115;DHT22;10715;48.546;9.896;2023-08-07T06:26:30;10.40;99.90
21115;DHT22;10715;48.546;9.896;2023-08-07T06:28:56;10.40;99.90
21115;DHT22;10715;48.546;9.896;2023-08-07T06:31:21;10.50;99.90
21115;DHT22;10715;48.546;9.896;2023-08-07T06:33:47;10.60;99.90
21115;DHT22;10715;48.546;9.896;2023-08-07T06:36:13;10.60;99.90
21115;DHT22;10715;48.546;9.896;2023-08-07T06:38:38;10.70;99.90
21115;DHT22;10715;48.546;9.896;2023-08-07T06:41:05;10.80;99.90
21115;DHT22;10715;48.546;9.896;2023-08-07T06:43:31;10.80;99.90
21115;DHT22;10715;48.546;9.896;2023-08-07T06:45:57;10.90;99.90
21115;DHT22;10715;48.546;9.896;2023-08-07T06:48:23;10.90;99.90
21115;DHT22;10715;48.546;9.896;2023-08-07T06:50:49;11.00;99.90
21115;DHT22;10715;48.546;9.896;2023-08-07T06:53:15;11.10;99.90
21115;DHT22;10715;48.546;9.896;2023-08-07T06:55:41;11.10;99.90
21115;DHT22;10715;48.546;9.896;2023-08-07T06:58:07;11.10;99.90
21115;DHT22;10715;48.546;9.896;2023-08-07T07:00:33;11.20;99.90
21115;DHT22;10715;48.546;9.896;2023-08-07T07:03:01;11.20;99.90
21115;DHT22;10715;48.546;9.896;2023-08-07T07:05:27;11.30;99.90
21115;DHT22;10715;48.546;9.896;2023-08-07T07:07:53;11.30;99.90
21115;DHT22;10715;48.546;9.896;2023-08-07T07:10:20;11.40;99.90
21115;DHT22;10715;48.546;9.896;2023-08-07T07:12:45;11.40;99.90
21115;DHT22;10715;48.546;9.896;2023-08-07T07:15:11;11.40;99.90
21115;DHT22;10715;48.546;9.896;2023-08-07T07:17:37;11.40;99.90
21115;DHT22;10715;48.546;9.896;2023-08-07T07:20:03;11.50;99.90
21115;DHT22;10715;48.546;9.896;2023-08-07T07:22:29;11.50;99.90
21115;DHT22;10715;48.546;9.896;2023-08-07T07:24:55;11.50;99.90
21115;DHT22;10715;48.546;9.896;2023-08-07T07:27:21;11.50;99.90
21115;DHT22;10715;48.546;9.896;2023-08-07T07:29:48;11.60;99.90
21115;DHT22;10715;48.546;9.896;2023-08-07T07:32:14;11.60;99.90
21115;DHT22;10715;48.546;9.896;2023-08-07T07:34:39;11.70;99.90
21115;DHT22;10715;48.546;9.896;2023-08-07T07:37:05;11.70;99.90
21115;DHT22;10715;48.546;9.896;2023-08-07T07:39:31;11.70;99.90
21115;DHT22;10715;48.546;9.896;2023-08-07T07:41:57;11.80;99.90
21115;DHT22;10715;48.546;9.896;2023-08-07T07:44:22;11.80;99.90
21115;DHT22;10715;48.546;9.896;2023-08-07T07:46:48;11.80;99.90
21115;DHT22;10715;48.546;9.896;2023-08-07T07:49:14;11.80;99.90
21115;DHT22;10715;48.546;9.896;2023-08-07T07:51:40;11.90;99.90
21115;DHT22;10715;48.546;9.896;2023-08-07T07:54:06;11.90;99.90
21115;DHT22;10715;48.546;9.896;2023-08-07T07:56:32;11.90;99.90
21115;DHT22;10715;48.546;9.896;2023-08-07T07:58:57;11.90;99.90
21115;DHT22;10715;48.546;9.896;2023-08-07T08:01:23;11.90;99.90
21115;DHT22;10715;48.546;9.896;2023-08-07T08:03:49;12.00;99.90
21115;DHT22;10715;48.546;9.896;2023-08-07T08:06:14;12.00;99.90
21115;DHT22;10715;48.546;9.896;2023-08-07T08:08:41;12.00;99.90
21115;DHT22;10715;48.546;9.896;2023-08-07T08:11:08;12.00;99.90
21115;DHT22;10715;48.546;9.896;2023-08-07T08:13:34;12.10;99.90
21115;DHT22;10715;48.546;9.896;2023-08-07T08:16:04;12.20;99.90
21115;DHT22;10715;48.546;9.896;2023-08-07T08:18:30;12.30;99.90
21115;DHT22;10715;48.546;9.896;2023-08-07T08:20:56;12.30;99.90
21115;DHT22;10715;48.546;9.896;2023-08-07T08:23:21;12.40;99.90
21115;DHT22;10715;48.546;9.896;2023-08-07T08:25:48;12.40;99.90
21115;DHT22;10715;48.546;9.896;2023-08-07T08:28:14;12.40;99.90
21115;DHT22;10715;48.546;9.896;2023-08-07T08:30:39;12.60;99.90
21115;DHT22;10715;48.546;9.896;2023-08-07T08:33:05;12.70;99.90
21115;DHT22;10715;48.546;9.896;2023-08-07T08:35:31;12.70;99.90
21115;DHT22;10715;48.546;9.896;2023-08-07T08:37:57;12.80;99.90
21115;DHT22;10715;48.546;9.896;2023-08-07T08:40:24;12.90;99.90
21115;DHT22;10715;48.546;9.896;2023-08-07T08:42:51;13.00;99.90
21115;DHT22;10715;48.546;9.896;2023-08-07T08:45:20;13.10;99.90
21115;DHT22;10715;48.546;9.896;2023-08-07T08:47:49;13.20;99.90
21115;DHT22;10715;48.546;9.896;2023-08-07T08:50:16;13.40;99.90
21115;DHT22;10715;48.546;9.896;2023-08-07T08:52:44;13.40;99.90
21115;DHT22;10715;48.546;9.896;2023-08-07T08:55:12;13.50;99.90
21115;DHT22;10715;48.546;9.896;2023-08-07T08:57:38;13.60;99.90
21115;DHT22;10715;48.546;9.896;2023-08-07T09:00:08;13.60;99.90
21115;DHT22;10715;48.546;9.896;2023-08-07T09:02:46;13.70;99.90
21115;DHT22;10715;48.546;9.896;2023-08-07T09:05:12;13.70;99.90
21115;DHT22;10715;48.546;9.896;2023-08-07T09:07:38;13.70;99.90
21115;DHT22;10715;48.546;9.896;2023-08-07T09:10:04;13.70;99.90
21115;DHT22;10715;48.546;9.896;2023-08-07T09:12:32;13.60;99.90
21115;DHT22;10715;48.546;9.896;2023-08-07T09:14:59;13.60;99.90
21115;DHT22;10715;48.546;9.896;2023-08-07T09:17:34;13.50;99.90
21115;DHT22;10715;48.546;9.896;2023-08-07T09:20:01;13.50;99.90
21115;DHT22;10715;48.546;9.896;2023-08-07T09:22:26;13.30;99.90
21115;DHT22;10715;48.546;9.896;2023-08-07T09:24:52;13.30;99.90
21115;DHT22;10715;48.546;9.896;2023-08-07T09:27:18;13.20;99.90
21115;DHT22;10715;48.546;9.896;2023-08-07T09:29:44;13.20;99.90
21115;DHT22;10715;48.546;9.896;2023-08-07T09:32:14;13.20;99.90
21115;DHT22;10715;48.546;9.896;2023-08-07T09:34:41;13.10;99.90
21115;DHT22;10715;48.546;9.896;2023-08-07T09:37:08;13.20;99.90
21115;DHT22;10715;48.546;9.896;2023-08-07T09:39:34;13.20;99.90
21115;DHT22;10715;48.546;9.896;2023-08-07T09:42:02;13.30;99.90
21115;DHT22;10715;48.546;9.896;2023-08-07T09:44:35;13.30;99.90
21115;DHT22;10715;48.546;9.896;2023-08-07T09:47:14;13.30;99.90
21115;DHT22;10715;48.546;9.896;2023-08-07T09:49:41;13.30;99.90
21115;DHT22;10715;48.546;9.896;2023-08-07T09:52:08;13.40;99.90
21115;DHT22;10715;48.546;9.896;2023-08-07T09:54:35;13.40;99.90
21115;DHT22;10715;48.546;9.896;2023-08-07T09:57:04;13.50;99.90
21115;DHT22;10715;48.546;9.896;2023-08-07T09:59:32;13.60;99.90
21115;DHT22;10715;48.546;9.896;2023-08-07T10:02:00;13.70;99.90
21115;DHT22;10715;48.546;9.896;2023-08-07T10:04:27;13.70;99.90
21115;DHT22;10715;48.546;9.896;2023-08-07T10:06:54;13.80;99.90
21115;DHT22;10715;48.546;9.896;2023-08-07T10:09:20;13.80;99.90
21115;DHT22;10715;48.546;9.896;2023-08-07T10:11:46;13.80;99.90
21115;DHT22;10715;48.546;9.896;2023-08-07T10:14:14;13.80;99.90
21115;DHT22;10715;48.546;9.896;2023-08-07T10:16:40;13.90;99.90
21115;DHT22;10715;48.546;9.896;2023-08-07T10:19:10;13.90;99.90
21115;DHT22;10715;48.546;9.896;2023-08-07T10:21:38;13.90;99.90
21115;DHT22;10715;48.546;9.896;2023-08-07T10:24:04;14.00;99.90
21115;DHT22;10715;48.546;9.896;2023-08-07T10:26:33;14.00;99.90
21115;DHT22;10715;48.546;9.896;2023-08-07T10:29:02;14.10;99.90
21115;DHT22;10715;48.546;9.896;2023-08-07T10:31:30;14.20;99.90
21115;DHT22;10715;48.546;9.896;2023-08-07T10:33:57;14.30;99.90
21115;DHT22;10715;48.546;9.896;2023-08-07T10:36:23;14.40;99.90
21115;DHT22;10715;48.546;9.896;2023-08-07T10:39:10;14.50;99.90
21115;DHT22;10715;48.546;9.896;2023-08-07T10:41:42;14.60;99.90
21115;DHT22;10715;48.546;9.896;2023-08-07T10:44:20;14.60;99.90
21115;DHT22;10715;48.546;9.896;2023-08-07T10:46:48;14.70;99.90
21115;DHT22;10715;48.546;9.896;2023-08-07T10:49:36;14.70;99.90
21115;DHT22;10715;48.546;9.896;2023-08-07T10:52:03;14.60;99.90
21115;DHT22;10715;48.546;9.896;2023-08-07T10:54:29;14.60;99.90
21115;DHT22;10715;48.546;9.896;2023-08-07T10:56:55;14.60;99.90
21115;DHT22;10715;48.546;9.896;2023-08-07T10:59:21;14.60;99.90
21115;DHT22;10715;48.546;9.896;2023-08-07T11:01:54;14.50;99.90
21115;DHT22;10715;48.546;9.896;2023-08-07T11:04:22;14.50;99.90
21115;DHT22;10715;48.546;9.896;2023-08-07T11:06:50;14.50;99.90
21115;DHT22;10715;48.546;9.896;2023-08-07T11:09:16;14.40;99.90
21115;DHT22;10715;48.546;9.896;2023-08-07T11:11:46;14.40;99.90
21115;DHT22;10715;48.546;9.896;2023-08-07T11:14:15;14.40;99.90
21115;DHT22;10715;48.546;9.896;2023-08-07T11:16:41;14.40;99.90
21115;DHT22;10715;48.546;9.896;2023-08-07T11:19:08;14.40;99.90
21115;DHT22;10715;48.546;9.896;2023-08-07T11:21:34;14.50;99.90
21115;DHT22;10715;48.546;9.896;2023-08-07T11:24:02;14.50;99.90
21115;DHT22;10715;48.546;9.896;2023-08-07T11:26:28;14.60;99.90
21115;DHT22;10715;48.546;9.896;2023-08-07T11:28:54;14.60;99.90
21115;DHT22;10715;48.546;9.896;2023-08-07T11:31:20;14.60;99.90
21115;DHT22;10715;48.546;9.896;2023-08-07T11:33:46;14.60;99.90
21115;DHT22;10715;48.546;9.896;2023-08-07T11:36:15;14.60;99.90
21115;DHT22;10715;48.546;9.896;2023-08-07T11:38:42;14.70;99.90
21115;DHT22;10715;48.546;9.896;2023-08-07T11:41:09;14.70;99.90
21115;DHT22;10715;48.546;9.896;2023-08-07T11:43:36;14.70;99.90
21115;DHT22;10715;48.546;9.896;2023-08-07T11:46:06;14.70;99.90
21115;DHT22;10715;48.546;9.896;2023-08-07T11:48:38;14.70;99.90
21115;DHT22;10715;48.546;9.896;2023-08-07T11:51:06;14.70;99.90
21115;DHT22;10715;48.546;9.896;2023-08-07T11:53:34;14.70;99.90
21115;DHT22;10715;48.546;9.896;2023-08-07T11:56:02;14.60;99.90
21115;DHT22;10715;48.546;9.896;2023-08-07T11:58:37;14.60;99.90
21115;DHT22;10715;48.546;9.896;2023-08-07T12:01:10;14.60;99.90
21115;DHT22;10715;48.546;9.896;2023-08-07T12:03:38;14.70;99.90
21115;DHT22;10715;48.546;9.896;2023-08-07T12:06:06;14.70;99.90
21115;DHT22;10715;48.546;9.896;2023-08-07T12:11:01;14.80;99.90
21115;DHT22;10715;48.546;9.896;2023-08-07T12:13:29;14.70;99.90
21115;DHT22;10715;48.546;9.896;2023-08-07T12:15:57;14.70;99.90
21115;DHT22;10715;48.546;9.896;2023-08-07T12:18:24;14.70;99.90
21115;DHT22;10715;48.546;9.896;2023-08-07T12:20:52;14.70;99.90
21115;DHT22;10715;48.546;9.896;2023-08-07T12:23:21;14.70;99.90
21115;DHT22;10715;48.546;9.896;2023-08-07T12:25:47;14.60;99.90
21115;DHT22;10715;48.546;9.896;2023-08-07T12:28:14;14.60;99.90
21115;DHT22;10715;48.546;9.896;2023-08-07T12:30:42;14.60;99.90
21115;DHT22;10715;48.546;9.896;2023-08-07T12:33:08;14.50;99.90
21115;DHT22;10715;48.546;9.896;2023-08-07T12:35:34;14.40;99.90
21115;DHT22;10715;48.546;9.896;2023-08-07T12:38:00;14.30;99.90
21115;DHT22;10715;48.546;9.896;2023-08-07T12:40:31;14.30;99.90
21115;DHT22;10715;48.546;9.896;2023-08-07T12:42:57;14.30;99.90
21115;DHT22;10715;48.546;9.896;2023-08-07T12:45:23;14.20;99.90
21115;DHT22;10715;48.546;9.896;2023-08-07T12:47:49;14.20;99.90
21115;DHT22;10715;48.546;9.896;2023-08-07T12:50:15;14.20;99.90
21115;DHT22;10715;48.546;9.896;2023-08-07T12:52:41;14.20;99.90
21115;DHT22;10715;48.546;9.896;2023-08-07T12:55:07;14.20;99.90
21115;DHT22;10715;48.546;9.896;2023-08-07T12:57:33;14.20;99.90
21115;DHT22;10715;48.546;9.896;2023-08-07T12:59:59;14.20;99.90
21115;DHT22;10715;48.546;9.896;2023-08-07T13:02:25;14.20;99.90
21115;DHT22;10715;48.546;9.896;2023-08-07T13:04:50;14.20;99.90
21115;DHT22;10715;48.546;9.896;2023-08-07T13:07:17;14.10;99.90
21115;DHT22;10715;48.546;9.896;2023-08-07T13:09:43;14.10;99.90
21115;DHT22;10715;48.546;9.896;2023-08-07T13:12:09;14.10;99.90
21115;DHT22;10715;48.546;9.896;2023-08-07T13:14:35;14.00;99.90
21115;DHT22;10715;48.546;9.896;2023-08-07T13:17:00;14.00;99.90
21115;DHT22;10715;48.546;9.896;2023-08-07T13:19:26;13.90;99.90
21115;DHT22;10715;48.546;9.896;2023-08-07T13:21:52;13.90;99.90
21115;DHT22;10715;48.546;9.896;2023-08-07T13:24:17;13.80;99.90
21115;DHT22;10715;48.546;9.896;2023-08-07T13:26:43;13.80;99.90
21115;DHT22;10715;48.546;9.896;2023-08-07T13:29:12;13.80;99.90
21115;DHT22;10715;48.546;9.896;2023-08-07T13:31:38;13.80;99.90
21115;DHT22;10715;48.546;9.896;2023-08-07T13:34:03;13.80;99.90
21115;DHT22;10715;48.546;9.896;2023-08-07T13:36:37;13.70;99.90
21115;DHT22;10715;48.546;9.896;2023-08-07T13:39:05;13.60;99.90
21115;DHT22;10715;48.546;9.896;2023-08-07T13:41:32;13.60;99.90
21115;DHT22;10715;48.546;9.896;2023-08-07T13:43:58;13.50;99.90
21115;DHT22;10715;48.546;9.896;2023-08-07T13:46:24;13.40;99.90
21115;DHT22;10715;48.546;9.896;2023-08-07T13:48:50;13.40;99.90
21115;DHT22;10715;48.546;9.896;2023-08-07T13:51:16;13.50;99.90
21115;DHT22;10715;48.546;9.896;2023-08-07T13:53:43;13.50;99.90
21115;DHT22;10715;48.546;9.896;2023-08-07T13:56:10;13.50;99.90
21115;DHT22;10715;48.546;9.896;2023-08-07T13:58:38;13.50;99.90
21115;DHT22;10715;48.546;9.896;2023-08-07T14:01:04;13.50;99.90
21115;DHT22;10715;48.546;9.896;2023-08-07T14:03:31;13.50;99.90
21115;DHT22;10715;48.546;9.896;2023-08-07T14:05:56;13.60;99.90
21115;DHT22;10715;48.546;9.896;2023-08-07T14:08:22;13.60;99.90
21115;DHT22;10715;48.546;9.896;2023-08-07T14:10:48;13.60;99.90
21115;DHT22;10715;48.546;9.896;2023-08-07T14:13:14;13.60;99.90
21115;DHT22;10715;48.546;9.896;2023-08-07T14:15:40;13.60;99.90
21115;DHT22;10715;48.546;9.896;2023-08-07T14:18:06;13.60;99.90
21115;DHT22;10715;48.546;9.896;2023-08-07T14:20:31;13.70;99.90
21115;DHT22;10715;48.546;9.896;2023-08-07T14:22:57;13.60;99.90
21115;DHT22;10715;48.546;9.896;2023-08-07T14:25:23;13.70;99.90
21115;DHT22;10715;48.546;9.896;2023-08-07T14:27:49;13.70;99.90
21115;DHT22;10715;48.546;9.896;2023-08-07T14:30:15;13.80;99.90
21115;DHT22;10715;48.546;9.896;2023-08-07T14:32:41;13.80;99.90
21115;DHT22;10715;48.546;9.896;2023-08-07T14:35:13;13.80;99.90
21115;DHT22;10715;48.546;9.896;2023-08-07T14:37:39;13.80;99.90
21115;DHT22;10715;48.546;9.896;2023-08-07T14:40:05;13.80;99.90
21115;DHT22;10715;48.546;9.896;2023-08-07T14:42:32;13.90;99.90
21115;DHT22;10715;48.546;9.896;2023-08-07T14:44:57;13.90;99.90
21115;DHT22;10715;48.546;9.896;2023-08-07T14:47:23;13.90;99.90
21115;DHT22;10715;48.546;9.896;2023-08-07T14:49:50;13.90;99.90
21115;DHT22;10715;48.546;9.896;2023-08-07T14:52:16;13.90;99.90
21115;DHT22;10715;48.546;9.896;2023-08-07T14:54:42;13.90;99.90
21115;DHT22;10715;48.546;9.896;2023-08-07T14:57:11;14.00;99.90
21115;DHT22;10715;48.546;9.896;2023-08-07T14:59:38;14.00;99.90
21115;DHT22;10715;48.546;9.896;2023-08-07T15:02:04;14.00;99.90
21115;DHT22;10715;48.546;9.896;2023-08-07T15:04:30;14.10;99.90
21115;DHT22;10715;48.546;9.896;2023-08-07T15:06:56;14.10;99.90
21115;DHT22;10715;48.546;9.896;2023-08-07T15:09:22;14.20;99.90
21115;DHT22;10715;48.546;9.896;2023-08-07T15:11:48;14.20;99.90
21115;DHT22;10715;48.546;9.896;2023-08-07T15:14:14;14.30;99.90
21115;DHT22;10715;48.546;9.896;2023-08-07T15:16:40;14.40;99.90
21115;DHT22;10715;48.546;9.896;2023-08-07T15:19:06;14.40;99.90
21115;DHT22;10715;48.546;9.896;2023-08-07T15:21:32;14.50;99.90
21115;DHT22;10715;48.546;9.896;2023-08-07T15:23:58;14.60;99.90
21115;DHT22;10715;48.546;9.896;2023-08-07T15:26:24;14.60;99.90
21115;DHT22;10715;48.546;9.896;2023-08-07T15:28:49;14.70;99.90
21115;DHT22;10715;48.546;9.896;2023-08-07T15:31:15;14.70;99.90
21115;DHT22;10715;48.546;9.896;2023-08-07T15:33:41;14.80;99.90
21115;DHT22;10715;48.546;9.896;2023-08-07T15:36:10;14.80;99.90
21115;DHT22;10715;48.546;9.896;2023-08-07T15:38:35;14.80;99.90